sensor_id;sensor_type;location;lat;lon;timestamp;P1;durP1;ratioP1;P2;durP2;ratioP2
43540;SDS011;29549;40.386;-3.710;2023-07-08T00:03:47;12.35;;;4.82;;
43540;SDS011;29549;40.386;-3.710;2023-07-08T00:13:48;9.52;;;5.63;;
43540;SDS011;29549;40.386;-3.710;2023-07-08T00:33:51;11.47;;;5.03;;
43540;SDS011;29549;40.386;-3.710;2023-07-08T00:43:56;8.68;;;4.10;;
43540;SDS011;29549;40.386;-3.710;2023-07-08T00:53:58;7.32;;;3.30;;
43540;SDS011;29549;40.386;-3.710;2023-07-08T01:04:00;8.23;;;3.67;;
43540;SDS011;29549;40.386;-3.710;2023-07-08T01:14:04;12.98;;;4.55;;
43540;SDS011;29549;40.386;-3.710;2023-07-08T01:24:08;10.75;;;5.45;;
43540;SDS011;29549;40.386;-3.710;2023-07-08T01:34:11;9.05;;;5.50;;
43540;SDS011;29549;40.386;-3.710;2023-07-08T01:54:28;5.80;;;3.40;;
43540;SDS011;29549;40.386;-3.710;2023-07-08T02:04:29;10.17;;;3.67;;
43540;SDS011;29549;40.386;-3.710;2023-07-08T02:14:30;8.73;;;3.60;;
43540;SDS011;29549;40.386;-3.710;2023-07-08T02:24:31;7.73;;;3.73;;
43540;SDS011;29549;40.386;-3.710;2023-07-08T02:34:31;5.13;;;3.53;;
43540;SDS011;29549;40.386;-3.710;2023-07-08T02:44:32;6.77;;;3.90;;
43540;SDS011;29549;40.386;-3.710;2023-07-08T02:54:33;5.90;;;3.47;;
43540;SDS011;29549;40.386;-3.710;2023-07-08T03:04:34;10.73;;;3.43;;
43540;SDS011;29549;40.386;-3.710;2023-07-08T03:14:39;5.82;;;3.33;;
43540;SDS011;29549;40.386;-3.710;2023-07-08T03:24:40;6.97;;;3.47;;
43540;SDS011;29549;40.386;-3.710;2023-07-08T03:34:46;7.25;;;4.95;;
43540;SDS011;29549;40.386;-3.710;2023-07-08T03:44:46;6.33;;;3.67;;
43540;SDS011;29549;40.386;-3.710;2023-07-08T03:54:47;9.47;;;4.27;;
43540;SDS011;29549;40.386;-3.710;2023-07-08T04:04:48;8.30;;;4.53;;
43540;SDS011;29549;40.386;-3.710;2023-07-08T04:14:50;5.38;;;3.63;;
43540;SDS011;29549;40.386;-3.710;2023-07-08T04:24:51;6.60;;;4.00;;
43540;SDS011;29549;40.386;-3.710;2023-07-08T04:34:52;7.67;;;3.83;;
43540;SDS011;29549;40.386;-3.710;2023-07-08T04:44:52;4.37;;;3.20;;
43540;SDS011;29549;40.386;-3.710;2023-07-08T04:54:54;10.00;;;4.67;;
43540;SDS011;29549;40.386;-3.710;2023-07-08T05:04:55;8.83;;;3.70;;
43540;SDS011;29549;40.386;-3.710;2023-07-08T05:14:55;5.83;;;3.20;;
43540;SDS011;29549;40.386;-3.710;2023-07-08T05:24:56;5.53;;;3.17;;
43540;SDS011;29549;40.386;-3.710;2023-07-08T05:34:57;8.17;;;3.13;;
43540;SDS011;29549;40.386;-3.710;2023-07-08T05:44:58;6.63;;;3.53;;
43540;SDS011;29549;40.386;-3.710;2023-07-08T05:54:59;8.70;;;3.30;;
43540;SDS011;29549;40.386;-3.710;2023-07-08T06:04:59;4.70;;;3.38;;
43540;SDS011;29549;40.386;-3.710;2023-07-08T06:15:00;6.72;;;3.88;;
43540;SDS011;29549;40.386;-3.710;2023-07-08T06:25:01;7.07;;;3.40;;
43540;SDS011;29549;40.386;-3.710;2023-07-08T06:35:02;7.20;;;3.50;;
43540;SDS011;29549;40.386;-3.710;2023-07-08T06:45:03;7.10;;;4.10;;
43540;SDS011;29549;40.386;-3.710;2023-07-08T06:55:06;4.40;;;2.38;;
43540;SDS011;29549;40.386;-3.710;2023-07-08T07:05:09;6.60;;;3.55;;
43540;SDS011;29549;40.386;-3.710;2023-07-08T07:15:10;7.33;;;3.37;;
43540;SDS011;29549;40.386;-3.710;2023-07-08T07:25:11;3.70;;;2.63;;
43540;SDS011;29549;40.386;-3.710;2023-07-08T07:35:11;6.60;;;3.33;;
43540;SDS011;29549;40.386;-3.710;2023-07-08T07:45:14;6.22;;;3.20;;
43540;SDS011;29549;40.386;-3.710;2023-07-08T07:55:15;7.95;;;3.78;;
43540;SDS011;29549;40.386;-3.710;2023-07-08T08:05:16;5.93;;;3.42;;
43540;SDS011;29549;40.386;-3.710;2023-07-08T08:25:18;5.40;;;3.55;;
43540;SDS011;29549;40.386;-3.710;2023-07-08T08:35:21;5.82;;;2.75;;
43540;SDS011;29549;40.386;-3.710;2023-07-08T08:45:21;6.22;;;2.67;;
43540;SDS011;29549;40.386;-3.710;2023-07-08T08:55:25;5.55;;;3.38;;
43540;SDS011;29549;40.386;-3.710;2023-07-08T09:05:26;7.03;;;2.90;;
43540;SDS011;29549;40.386;-3.710;2023-07-08T09:15:27;6.57;;;2.80;;
43540;SDS011;29549;40.386;-3.710;2023-07-08T09:35:48;6.20;;;2.87;;
43540;SDS011;29549;40.386;-3.710;2023-07-08T09:45:49;5.32;;;3.00;;
43540;SDS011;29549;40.386;-3.710;2023-07-08T09:55:50;6.70;;;3.08;;
43540;SDS011;29549;40.386;-3.710;2023-07-08T10:05:52;7.13;;;2.65;;
43540;SDS011;29549;40.386;-3.710;2023-07-08T10:16:06;5.80;;;2.92;;
43540;SDS011;29549;40.386;-3.710;2023-07-08T10:26:26;7.83;;;3.90;;
43540;SDS011;29549;40.386;-3.710;2023-07-08T10:36:36;4.00;;;2.67;;
43540;SDS011;29549;40.386;-3.710;2023-07-08T11:17:36;8.13;;;5.60;;
43540;SDS011;29549;40.386;-3.710;2023-07-08T11:27:41;4.85;;;2.95;;
43540;SDS011;29549;40.386;-3.710;2023-07-08T11:37:44;3.65;;;2.85;;
43540;SDS011;29549;40.386;-3.710;2023-07-08T11:47:46;6.85;;;2.65;;
43540;SDS011;29549;40.386;-3.710;2023-07-08T11:57:49;5.07;;;3.15;;
43540;SDS011;29549;40.386;-3.710;2023-07-08T12:07:57;6.22;;;2.60;;
43540;SDS011;29549;40.386;-3.710;2023-07-08T12:18:00;6.82;;;2.95;;
43540;SDS011;29549;40.386;-3.710;2023-07-08T12:28:04;8.20;;;2.65;;
43540;SDS011;29549;40.386;-3.710;2023-07-08T12:38:09;7.95;;;2.88;;
43540;SDS011;29549;40.386;-3.710;2023-07-08T12:48:12;6.65;;;3.58;;
43540;SDS011;29549;40.386;-3.710;2023-07-08T12:58:13;5.45;;;2.83;;
43540;SDS011;29549;40.386;-3.710;2023-07-08T13:08:20;7.15;;;2.70;;
43540;SDS011;29549;40.386;-3.710;2023-07-08T13:18:31;6.57;;;2.90;;
43540;SDS011;29549;40.386;-3.710;2023-07-08T13:28:36;5.18;;;3.05;;
43540;SDS011;29549;40.386;-3.710;2023-07-08T13:38:41;5.18;;;2.67;;
43540;SDS011;29549;40.386;-3.710;2023-07-08T13:48:42;5.18;;;2.10;;
43540;SDS011;29549;40.386;-3.710;2023-07-08T13:58:49;7.03;;;2.67;;
43540;SDS011;29549;40.386;-3.710;2023-07-08T14:08:53;4.00;;;2.55;;
43540;SDS011;29549;40.386;-3.710;2023-07-08T14:18:55;5.28;;;2.55;;
43540;SDS011;29549;40.386;-3.710;2023-07-08T14:28:57;4.70;;;2.72;;
43540;SDS011;29549;40.386;-3.710;2023-07-08T14:38:58;5.23;;;2.57;;
43540;SDS011;29549;40.386;-3.710;2023-07-08T14:49:00;7.97;;;4.25;;
43540;SDS011;29549;40.386;-3.710;2023-07-08T14:59:01;6.63;;;3.20;;
43540;SDS011;29549;40.386;-3.710;2023-07-08T15:09:02;4.90;;;2.60;;
43540;SDS011;29549;40.386;-3.710;2023-07-08T15:19:08;4.05;;;2.30;;
43540;SDS011;29549;40.386;-3.710;2023-07-08T15:29:12;4.25;;;3.00;;
43540;SDS011;29549;40.386;-3.710;2023-07-08T15:39:16;5.07;;;2.83;;
43540;SDS011;29549;40.386;-3.710;2023-07-08T15:49:18;6.15;;;3.10;;
43540;SDS011;29549;40.386;-3.710;2023-07-08T15:59:21;5.18;;;2.65;;
43540;SDS011;29549;40.386;-3.710;2023-07-08T16:09:28;4.53;;;2.90;;
43540;SDS011;29549;40.386;-3.710;2023-07-08T16:19:29;5.68;;;2.65;;
43540;SDS011;29549;40.386;-3.710;2023-07-08T16:29:30;5.47;;;2.40;;
43540;SDS011;29549;40.386;-3.710;2023-07-08T16:39:31;5.63;;;2.50;;
43540;SDS011;29549;40.386;-3.710;2023-07-08T16:49:32;5.88;;;2.80;;
43540;SDS011;29549;40.386;-3.710;2023-07-08T16:59:33;6.72;;;3.22;;
43540;SDS011;29549;40.386;-3.710;2023-07-08T17:09:34;5.38;;;3.22;;
43540;SDS011;29549;40.386;-3.710;2023-07-08T17:19:35;4.10;;;2.67;;
43540;SDS011;29549;40.386;-3.710;2023-07-08T17:29:35;6.15;;;2.60;;
43540;SDS011;29549;40.386;-3.710;2023-07-08T17:39:36;6.32;;;2.97;;
43540;SDS011;29549;40.386;-3.710;2023-07-08T17:49:37;5.90;;;2.60;;
43540;SDS011;29549;40.386;-3.710;2023-07-08T17:59:39;3.85;;;2.30;;
43540;SDS011;29549;40.386;-3.710;2023-07-08T18:09:39;3.90;;;2.38;;
43540;SDS011;29549;40.386;-3.710;2023-07-08T18:19:40;4.53;;;2.95;;
43540;SDS011;29549;40.386;-3.710;2023-07-08T18:29:41;6.78;;;3.03;;
43540;SDS011;29549;40.386;-3.710;2023-07-08T18:39:44;4.75;;;2.65;;
43540;SDS011;29549;40.386;-3.710;2023-07-08T18:49:45;4.85;;;2.88;;
43540;SDS011;29549;40.386;-3.710;2023-07-08T18:59:46;5.85;;;2.80;;
43540;SDS011;29549;40.386;-3.710;2023-07-08T19:09:48;4.55;;;2.88;;
43540;SDS011;29549;40.386;-3.710;2023-07-08T19:19:48;6.47;;;3.10;;
43540;SDS011;29549;40.386;-3.710;2023-07-08T19:29:49;4.90;;;3.15;;
43540;SDS011;29549;40.386;-3.710;2023-07-08T19:39:50;6.10;;;3.05;;
43540;SDS011;29549;40.386;-3.710;2023-07-08T19:49:51;11.70;;;3.75;;
43540;SDS011;29549;40.386;-3.710;2023-07-08T19:59:52;4.88;;;3.30;;
43540;SDS011;29549;40.386;-3.710;2023-07-08T20:09:52;8.75;;;4.47;;
43540;SDS011;29549;40.386;-3.710;2023-07-08T20:19:53;9.52;;;5.53;;
43540;SDS011;29549;40.386;-3.710;2023-07-08T20:29:54;8.82;;;3.80;;
43540;SDS011;29549;40.386;-3.710;2023-07-08T20:39:55;8.75;;;4.40;;
43540;SDS011;29549;40.386;-3.710;2023-07-08T20:49:55;5.57;;;4.00;;
43540;SDS011;29549;40.386;-3.710;2023-07-08T20:59:56;7.28;;;4.20;;
43540;SDS011;29549;40.386;-3.710;2023-07-08T21:09:57;8.70;;;4.47;;
43540;SDS011;29549;40.386;-3.710;2023-07-08T21:19:57;7.70;;;3.70;;
43540;SDS011;29549;40.386;-3.710;2023-07-08T21:29:58;5.65;;;3.65;;
43540;SDS011;29549;40.386;-3.710;2023-07-08T21:39:59;7.35;;;4.32;;
43540;SDS011;29549;40.386;-3.710;2023-07-08T21:50:00;7.53;;;3.70;;
43540;SDS011;29549;40.386;-3.710;2023-07-08T22:00:00;6.60;;;3.83;;
43540;SDS011;29549;40.386;-3.710;2023-07-08T22:10:01;6.88;;;4.95;;
43540;SDS011;29549;40.386;-3.710;2023-07-08T22:20:02;13.88;;;4.88;;
43540;SDS011;29549;40.386;-3.710;2023-07-08T22:30:05;15.45;;;9.93;;
43540;SDS011;29549;40.386;-3.710;2023-07-08T22:40:07;11.20;;;8.95;;
43540;SDS011;29549;40.386;-3.710;2023-07-08T22:50:08;8.82;;;4.95;;
43540;SDS011;29549;40.386;-3.710;2023-07-08T23:00:11;7.32;;;5.05;;
43540;SDS011;29549;40.386;-3.710;2023-07-08T23:10:25;6.93;;;3.80;;
43540;SDS011;29549;40.386;-3.710;2023-07-08T23:20:25;10.50;;;4.03;;
43540;SDS011;29549;40.386;-3.710;2023-07-08T23:30:26;6.70;;;4.20;;
43540;SDS011;29549;40.386;-3.710;2023-07-08T23:40:27;11.00;;;8.73;;
43540;SDS011;29549;40.386;-3.710;2023-07-08T23:50:27;11.87;;;6.73;;
